Terminal Aerodrome Forecast
Issued by NWS

Home | Current Version | Previous Version | Text Only | Print | Product List | Glossary On
Versions: 1 2 3 4 5 6 7 8 9 10 11 12 13 14 15 16 17 18 19 20 21 22 23 24 25 26 27 28 29 30 31 32
000
FTUS43 KGLD 150548
TAFMCK
TAF
KMCK 150548Z 1506/1606 10005KT P6SM BKN250
     FM152000 15015KT P6SM VCTS SCT070CB BKN200
     FM160000 06009KT P6SM VCTS BKN090CB
     FM160500 16006KT P6SM VCTS BKN090CB WS010/19010KT=

USA.gov is the U.S. government's official web portal to all federal, state and local government web resources and services.